createdAt,value
2022-12-27T00:02:07.785Z,96.84
2022-12-27T00:04:34.412Z,96.01
2022-12-27T00:07:01.461Z,96.11
2022-12-27T00:09:28.094Z,95.36
2022-12-27T00:11:59.915Z,96.15
2022-12-27T00:14:26.677Z,96.15
2022-12-27T00:16:53.485Z,96.43
2022-12-27T00:19:20.085Z,96.47
2022-12-27T00:21:46.612Z,97.68
2022-12-27T00:24:20.871Z,97.25
2022-12-27T00:26:47.452Z,96.77
2022-12-27T00:29:14.216Z,97.43
2022-12-27T00:31:40.839Z,97.84
2022-12-27T00:34:08.067Z,98.36
2022-12-27T00:36:45.283Z,98.91
2022-12-27T00:39:12.348Z,98.47
2022-12-27T00:41:39.302Z,98.22
2022-12-27T00:44:05.980Z,98.10
2022-12-27T00:46:32.577Z,98.29
2022-12-27T00:49:06.358Z,99.48
2022-12-27T00:51:32.957Z,98.93
2022-12-27T00:53:59.502Z,99.50
2022-12-27T00:56:28.978Z,100.00
2022-12-27T00:58:57.502Z,99.12
2022-12-27T01:01:35.261Z,100.00
2022-12-27T01:04:03.103Z,100.00
2022-12-27T01:06:32.412Z,100.00
2022-12-27T01:09:05.119Z,100.00
2022-12-27T01:11:31.854Z,99.86
2022-12-27T01:14:01.244Z,99.32
2022-12-27T01:16:29.633Z,100.00
2022-12-27T01:18:56.369Z,100.00
2022-12-27T01:21:33.020Z,100.00
2022-12-27T01:23:59.709Z,100.00
2022-12-27T01:26:26.588Z,100.00
2022-12-27T01:28:53.611Z,99.85
2022-12-27T01:31:33.679Z,99.62
2022-12-27T01:34:00.880Z,100.00
2022-12-27T01:36:29.239Z,100.00
2022-12-27T01:38:55.876Z,100.00
2022-12-27T01:41:55.972Z,100.00
2022-12-27T01:44:38.125Z,100.00
2022-12-27T01:47:13.607Z,100.00
2022-12-27T01:49:52.903Z,100.00
2022-12-27T01:52:20.831Z,100.00
2022-12-27T01:54:47.660Z,100.00
2022-12-27T01:57:14.258Z,100.00
2022-12-27T01:59:49.095Z,100.00
2022-12-27T02:02:16.001Z,100.00
2022-12-27T02:04:43.760Z,100.00
2022-12-27T02:07:10.279Z,100.00
2022-12-27T02:09:53.426Z,100.00
2022-12-27T02:12:21.804Z,100.00
2022-12-27T02:14:49.943Z,100.00
2022-12-27T02:17:20.807Z,100.00
2022-12-27T02:20:09.239Z,100.00
2022-12-27T02:23:37.784Z,100.00
2022-12-27T02:26:21.013Z,100.00
2022-12-27T02:29:08.052Z,100.00
2022-12-27T02:31:49.242Z,100.00
2022-12-27T02:34:22.536Z,100.00
2022-12-27T02:36:53.200Z,100.00
2022-12-27T02:39:23.031Z,100.00
2022-12-27T02:42:08.580Z,100.00
2022-12-27T02:44:53.838Z,100.00
2022-12-27T02:47:41.283Z,100.00
2022-12-27T02:50:32.657Z,100.00
2022-12-27T02:53:10.461Z,100.00
2022-12-27T02:55:43.050Z,100.00
2022-12-27T02:58:28.440Z,100.00
2022-12-27T03:01:51.141Z,100.00
2022-12-27T03:04:35.327Z,100.00
2022-12-27T03:07:41.255Z,100.00
2022-12-27T03:10:50.632Z,100.00
2022-12-27T03:13:55.668Z,100.00
2022-12-27T03:16:27.372Z,100.00
2022-12-27T03:19:40.805Z,100.00
2022-12-27T03:22:28.445Z,100.00
2022-12-27T03:25:16.181Z,100.00
2022-12-27T03:27:45.052Z,100.00
2022-12-27T03:30:34.134Z,100.00
2022-12-27T03:33:14.015Z,100.00
2022-12-27T03:36:17.957Z,100.00
2022-12-27T03:38:53.229Z,100.00
2022-12-27T03:41:55.123Z,100.00
2022-12-27T03:44:25.161Z,100.00
2022-12-27T03:46:56.961Z,100.00
2022-12-27T03:49:36.509Z,100.00
2022-12-27T03:52:08.772Z,100.00
2022-12-27T03:54:40.291Z,100.00
2022-12-27T03:57:11.752Z,100.00
2022-12-27T03:59:39.272Z,100.00
2022-12-27T04:02:08.562Z,100.00
2022-12-27T04:04:35.572Z,100.00
2022-12-27T04:07:02.536Z,100.00
2022-12-27T04:09:50.147Z,100.00
2022-12-27T04:12:35.313Z,100.00
2022-12-27T04:15:23.592Z,100.00
2022-12-27T04:18:08.922Z,100.00
2022-12-27T04:20:53.883Z,100.00
2022-12-27T04:23:39.346Z,100.00
2022-12-27T04:26:24.300Z,100.00
2022-12-27T04:29:09.490Z,100.00
2022-12-27T04:31:54.719Z,100.00
2022-12-27T04:34:40.019Z,100.00
2022-12-27T04:37:07.455Z,100.00
2022-12-27T04:39:36.623Z,100.00
2022-12-27T04:42:21.695Z,100.00
2022-12-27T04:45:15.626Z,100.00
2022-12-27T04:48:01.356Z,100.00
2022-12-27T04:50:50.962Z,100.00
2022-12-27T04:53:40.617Z,100.00
2022-12-27T04:56:07.841Z,100.00
2022-12-27T04:58:34.594Z,100.00
2022-12-27T05:01:22.828Z,100.00
2022-12-27T05:03:51.976Z,100.00
2022-12-27T05:06:19.154Z,100.00
2022-12-27T05:09:04.937Z,100.00
2022-12-27T05:11:50.097Z,100.00
2022-12-27T05:14:16.801Z,100.00
2022-12-27T05:16:45.351Z,100.00
2022-12-27T05:19:16.167Z,100.00
2022-12-27T05:22:03.556Z,100.00
2022-12-27T05:24:49.094Z,100.00
2022-12-27T05:27:17.383Z,100.00
2022-12-27T05:29:44.023Z,100.00
2022-12-27T05:32:13.359Z,100.00
2022-12-27T05:34:40.592Z,100.00
2022-12-27T05:37:07.356Z,100.00
2022-12-27T05:39:33.918Z,100.00
2022-12-27T05:42:03.317Z,100.00
2022-12-27T05:44:29.896Z,100.00
2022-12-27T05:46:56.544Z,100.00
2022-12-27T05:49:23.208Z,100.00
2022-12-27T05:51:49.874Z,100.00
2022-12-27T05:54:16.463Z,100.00
2022-12-27T05:56:51.938Z,100.00
2022-12-27T05:59:18.654Z,100.00
2022-12-27T06:01:45.431Z,100.00
2022-12-27T06:04:12.139Z,100.00
2022-12-27T06:06:38.770Z,100.00
2022-12-27T06:09:14.508Z,100.00
2022-12-27T06:11:41.232Z,100.00
2022-12-27T06:14:07.915Z,100.00
2022-12-27T06:16:34.501Z,100.00
2022-12-27T06:19:01.082Z,100.00
2022-12-27T06:21:37.899Z,100.00
2022-12-27T06:24:05.004Z,100.00
2022-12-27T06:26:31.750Z,100.00
2022-12-27T06:28:58.863Z,100.00
2022-12-27T06:31:34.363Z,100.00
2022-12-27T06:34:03.355Z,100.00
2022-12-27T06:36:30.496Z,100.00
2022-12-27T06:38:58.059Z,100.00
2022-12-27T06:41:24.883Z,100.00
2022-12-27T06:44:00.507Z,100.00
2022-12-27T06:46:29.395Z,100.00
2022-12-27T06:48:56.083Z,100.00
2022-12-27T06:51:22.641Z,100.00
2022-12-27T06:53:50.419Z,100.00
2022-12-27T06:56:21.452Z,100.00
2022-12-27T06:58:49.580Z,100.00
2022-12-27T07:01:25.110Z,100.00
2022-12-27T07:04:00.322Z,100.00
2022-12-27T07:06:30.106Z,100.00
2022-12-27T07:08:58.550Z,100.00
2022-12-27T07:11:25.823Z,100.00
2022-12-27T07:13:58.833Z,100.00
2022-12-27T07:16:30.573Z,100.00
2022-12-27T07:18:58.871Z,100.00
2022-12-27T07:21:28.142Z,100.00
2022-12-27T07:24:04.246Z,100.00
2022-12-27T07:26:30.949Z,100.00
2022-12-27T07:29:01.753Z,100.00
2022-12-27T07:31:31.659Z,100.00
2022-12-27T07:34:03.715Z,100.00
2022-12-27T07:36:37.995Z,100.00
2022-12-27T07:39:06.009Z,100.00
2022-12-27T07:41:33.494Z,100.00
2022-12-27T07:44:08.922Z,100.00
2022-12-27T07:46:36.141Z,100.00
2022-12-27T07:49:02.914Z,100.00
2022-12-27T07:51:30.212Z,100.00
2022-12-27T07:53:56.874Z,100.00
2022-12-27T07:56:27.174Z,100.00
2022-12-27T07:58:56.524Z,100.00
2022-12-27T08:01:25.706Z,100.00
2022-12-27T08:03:52.480Z,100.00
2022-12-27T08:06:37.317Z,100.00
2022-12-27T08:09:06.967Z,100.00
2022-12-27T08:11:33.669Z,100.00
2022-12-27T08:14:07.688Z,100.00
2022-12-27T08:16:35.051Z,100.00
2022-12-27T08:19:06.517Z,100.00
2022-12-27T08:21:35.041Z,100.00
2022-12-27T08:24:02.661Z,100.00
2022-12-27T08:26:29.362Z,100.00
2022-12-27T08:28:59.587Z,100.00
2022-12-27T08:31:26.358Z,100.00
2022-12-27T08:33:58.295Z,100.00
2022-12-27T08:39:20.250Z,100.00
2022-12-27T08:41:50.181Z,100.00
2022-12-27T08:44:19.120Z,100.00
2022-12-27T08:46:45.816Z,100.00
2022-12-27T08:49:12.397Z,100.00
2022-12-27T08:51:41.512Z,100.00
2022-12-27T08:54:12.206Z,100.00
2022-12-27T08:56:41.169Z,100.00
2022-12-27T08:59:07.799Z,100.00
2022-12-27T09:01:34.506Z,100.00
2022-12-27T09:04:02.216Z,100.00
2022-12-27T09:06:36.420Z,100.00
2022-12-27T09:09:03.222Z,100.00
2022-12-27T09:11:33.302Z,100.00
2022-12-27T09:14:03.840Z,100.00
2022-12-27T09:16:44.674Z,100.00
2022-12-27T09:19:11.608Z,100.00
2022-12-27T09:21:41.185Z,100.00
2022-12-27T09:24:14.638Z,99.87
2022-12-27T09:26:43.654Z,99.44
2022-12-27T09:29:11.249Z,99.91
2022-12-27T09:31:38.057Z,99.79
2022-12-27T09:34:04.997Z,99.47
2022-12-27T09:36:40.931Z,100.00
2022-12-27T09:39:07.699Z,100.00
2022-12-27T09:44:43.828Z,100.00
2022-12-27T09:47:23.947Z,100.00
2022-12-27T09:50:18.386Z,99.78
2022-12-27T09:53:05.588Z,100.00
2022-12-27T09:55:46.747Z,99.75
2022-12-27T09:58:19.083Z,99.34
2022-12-27T10:00:51.638Z,99.68
2022-12-27T10:03:25.601Z,99.12
2022-12-27T10:06:12.076Z,99.02
2022-12-27T10:08:52.013Z,99.29
2022-12-27T10:11:37.931Z,98.34
2022-12-27T10:14:19.442Z,98.47
2022-12-27T10:17:00.140Z,98.79
2022-12-27T10:19:49.937Z,98.92
2022-12-27T10:22:40.417Z,99.50
2022-12-27T10:25:14.019Z,99.10
2022-12-27T10:27:41.923Z,98.33
2022-12-27T10:30:18.676Z,98.16
2022-12-27T10:32:46.541Z,99.41
2022-12-27T10:35:19.008Z,98.20
2022-12-27T10:37:47.574Z,98.34
2022-12-27T10:40:26.828Z,98.05
2022-12-27T10:43:19.460Z,97.72
2022-12-27T10:45:46.241Z,97.45
2022-12-27T10:48:22.627Z,97.77
2022-12-27T10:51:10.695Z,97.02
2022-12-27T10:53:38.843Z,97.34
2022-12-27T10:56:27.310Z,97.11
2022-12-27T10:59:06.963Z,97.24
2022-12-27T11:01:36.331Z,96.32
2022-12-27T11:04:20.219Z,95.02
2022-12-27T11:06:53.761Z,94.31
2022-12-27T11:09:26.884Z,94.48
2022-12-27T11:12:14.063Z,94.83
2022-12-27T11:14:53.938Z,93.67
2022-12-27T11:17:29.774Z,93.46
2022-12-27T11:20:00.122Z,93.57
2022-12-27T11:22:27.274Z,92.93
2022-12-27T11:25:04.751Z,93.15
2022-12-27T11:27:39.167Z,92.34
2022-12-27T11:30:06.336Z,92.11
2022-12-27T11:32:33.528Z,91.81
2022-12-27T11:35:16.315Z,92.03
2022-12-27T11:37:42.963Z,92.10
2022-12-27T11:40:21.815Z,91.73
2022-12-27T11:42:53.329Z,92.34
2022-12-27T11:45:29.295Z,91.01
2022-12-27T11:48:27.981Z,91.23
2022-12-27T11:51:32.370Z,90.56
2022-12-27T11:54:23.058Z,90.84
2022-12-27T11:57:21.179Z,90.58
2022-12-27T12:00:12.570Z,90.57
2022-12-27T12:03:06.615Z,90.54
2022-12-27T12:05:42.126Z,90.96
2022-12-27T12:08:17.844Z,90.21
2022-12-27T12:11:01.094Z,89.84
2022-12-27T12:14:18.859Z,89.99
2022-12-27T12:16:54.536Z,89.36
2022-12-27T12:19:58.692Z,89.73
2022-12-27T12:22:39.160Z,89.53
2022-12-27T12:25:23.997Z,90.16
2022-12-27T12:27:57.581Z,88.30
2022-12-27T12:30:56.185Z,89.29
2022-12-27T12:33:58.048Z,88.87
2022-12-27T12:36:46.607Z,89.09
2022-12-27T12:39:32.569Z,89.06
2022-12-27T12:41:59.234Z,89.03
2022-12-27T12:45:07.600Z,89.12
2022-12-27T12:48:07.591Z,88.24
2022-12-27T12:50:56.505Z,89.15
2022-12-27T12:53:29.116Z,89.51
2022-12-27T12:56:09.874Z,89.56
2022-12-27T12:58:47.418Z,89.46
2022-12-27T13:01:29.977Z,90.29
2022-12-27T13:04:23.090Z,90.38
2022-12-27T13:07:07.603Z,90.65
2022-12-27T13:09:42.997Z,90.14
2022-12-27T13:12:37.130Z,89.77
2022-12-27T13:15:35.020Z,90.33
2022-12-27T13:18:44.498Z,90.51
2022-12-27T13:21:52.837Z,91.56
2022-12-27T13:24:34.257Z,92.00
2022-12-27T13:27:19.823Z,92.11
2022-12-27T13:29:59.131Z,92.71
2022-12-27T13:32:49.598Z,92.39
2022-12-27T13:35:31.118Z,91.91
2022-12-27T13:38:07.482Z,92.30
2022-12-27T13:40:42.389Z,90.82
2022-12-27T13:43:33.322Z,91.71
2022-12-27T13:46:23.075Z,90.59
2022-12-27T13:49:12.303Z,90.79
2022-12-27T13:51:50.443Z,92.06
2022-12-27T13:54:35.784Z,92.23
2022-12-27T13:57:20.248Z,91.88
2022-12-27T13:59:52.890Z,91.62
2022-12-27T14:02:42.175Z,91.48
2022-12-27T14:05:56.589Z,91.67
2022-12-27T14:08:55.901Z,91.86
2022-12-27T14:11:38.751Z,91.86
2022-12-27T14:14:18.454Z,92.65
2022-12-27T14:16:59.068Z,92.58
2022-12-27T14:19:44.591Z,92.32
2022-12-27T14:22:38.407Z,92.71
2022-12-27T14:25:16.240Z,92.87
2022-12-27T14:27:57.315Z,92.96
2022-12-27T14:30:41.599Z,93.05
2022-12-27T14:33:30.072Z,92.11
2022-12-27T14:36:19.254Z,92.57
2022-12-27T14:39:03.719Z,92.43
2022-12-27T14:42:11.801Z,92.73
2022-12-27T14:45:19.218Z,92.78
2022-12-27T14:48:08.963Z,92.61
2022-12-27T14:51:08.165Z,93.27
2022-12-27T14:54:04.231Z,92.67
2022-12-27T14:56:50.413Z,92.42
2022-12-27T15:00:14.561Z,93.14
2022-12-27T15:03:09.763Z,94.09
2022-12-27T15:06:04.088Z,93.90
2022-12-27T15:08:43.054Z,94.33
2022-12-27T15:11:19.775Z,94.23
2022-12-27T15:14:04.483Z,94.19
2022-12-27T15:16:55.673Z,94.52
2022-12-27T15:19:25.589Z,95.43
2022-12-27T15:22:10.180Z,95.75
2022-12-27T15:24:47.505Z,95.98
2022-12-27T15:27:33.295Z,95.59
2022-12-27T15:30:29.792Z,96.47
2022-12-27T15:33:10.310Z,96.92
2022-12-27T15:35:44.809Z,96.98
2022-12-27T15:38:14.333Z,97.50
2022-12-27T15:40:48.830Z,97.96
2022-12-27T15:43:18.563Z,97.77
2022-12-27T15:46:18.236Z,98.13
2022-12-27T15:49:20.335Z,98.34
2022-12-27T15:52:24.021Z,98.34
2022-12-27T15:55:16.971Z,98.45
2022-12-27T15:58:15.477Z,97.87
2022-12-27T16:00:52.188Z,97.13
2022-12-27T16:03:48.839Z,97.50
2022-12-27T16:06:34.053Z,97.08
2022-12-27T16:09:46.750Z,96.98
2022-12-27T16:12:38.719Z,96.46
2022-12-27T16:15:48.543Z,97.12
2022-12-27T16:18:24.241Z,96.71
2022-12-27T16:21:11.639Z,95.91
2022-12-27T16:23:58.729Z,96.29
2022-12-27T16:26:28.350Z,96.63
2022-12-27T16:29:23.256Z,96.76
2022-12-27T16:31:51.119Z,96.57
2022-12-27T16:34:37.878Z,96.80
2022-12-27T16:37:04.690Z,96.87
2022-12-27T16:39:34.447Z,97.14
2022-12-27T16:42:13.762Z,97.45
2022-12-27T16:45:05.077Z,97.66
2022-12-27T16:47:44.198Z,98.22
2022-12-27T16:50:43.115Z,97.85
2022-12-27T16:53:25.082Z,97.92
2022-12-27T16:56:16.460Z,98.29
2022-12-27T16:58:49.568Z,98.97
2022-12-27T17:01:42.435Z,98.99
2022-12-27T17:04:52.047Z,99.71
2022-12-27T17:07:42.361Z,100.00
2022-12-27T17:10:31.432Z,100.00
2022-12-27T17:13:30.288Z,100.00
2022-12-27T17:16:23.979Z,100.00
2022-12-27T17:19:01.666Z,100.00
2022-12-27T17:21:30.312Z,100.00
2022-12-27T17:24:06.993Z,100.00
2022-12-27T17:27:11.409Z,100.00
2022-12-27T17:29:59.475Z,100.00
2022-12-27T17:33:00.391Z,100.00
2022-12-27T17:36:04.119Z,99.95
2022-12-27T17:39:05.029Z,99.70
2022-12-27T17:42:04.301Z,99.63
2022-12-27T17:44:50.990Z,99.81
2022-12-27T17:47:33.840Z,100.00
2022-12-27T17:50:16.087Z,100.00
2022-12-27T17:53:01.133Z,100.00
2022-12-27T17:55:51.818Z,100.00
2022-12-27T17:58:21.236Z,100.00
2022-12-27T18:01:49.916Z,100.00
2022-12-27T18:04:22.722Z,100.00
2022-12-27T18:06:59.768Z,100.00
2022-12-27T18:09:40.037Z,100.00
2022-12-27T18:12:25.037Z,100.00
2022-12-27T18:14:58.918Z,100.00
2022-12-27T18:17:53.089Z,100.00
2022-12-27T18:20:31.197Z,100.00
2022-12-27T18:23:03.983Z,100.00
2022-12-27T18:25:33.432Z,100.00
2022-12-27T18:28:32.625Z,100.00
2022-12-27T18:31:24.127Z,100.00
2022-12-27T18:34:10.422Z,100.00
2022-12-27T18:37:15.009Z,100.00
2022-12-27T18:40:15.167Z,100.00
2022-12-27T18:42:56.060Z,100.00
2022-12-27T18:45:32.503Z,100.00
2022-12-27T18:48:25.793Z,100.00
2022-12-27T18:50:55.533Z,100.00
2022-12-27T18:53:45.218Z,100.00
2022-12-27T18:56:14.867Z,100.00
2022-12-27T18:59:26.397Z,100.00
2022-12-27T19:01:57.268Z,100.00
2022-12-27T19:07:26.445Z,100.00
2022-12-27T19:10:05.958Z,100.00
2022-12-27T19:12:38.779Z,100.00
2022-12-27T19:15:29.629Z,100.00
2022-12-27T19:18:02.435Z,100.00
2022-12-27T19:21:00.255Z,100.00
2022-12-27T19:24:27.442Z,100.00
2022-12-27T19:26:56.563Z,100.00
2022-12-27T19:29:54.733Z,100.00
2022-12-27T19:32:44.552Z,100.00
2022-12-27T19:35:20.323Z,100.00
2022-12-27T19:37:54.344Z,100.00
2022-12-27T19:40:21.653Z,100.00
2022-12-27T19:42:48.474Z,100.00
2022-12-27T19:45:23.568Z,100.00
2022-12-27T19:47:56.978Z,100.00
2022-12-27T19:50:23.844Z,100.00
2022-12-27T19:52:50.812Z,100.00
2022-12-27T19:55:22.801Z,100.00
2022-12-27T19:57:49.504Z,100.00
2022-12-27T20:00:27.556Z,100.00
2022-12-27T20:02:55.428Z,100.00
2022-12-27T20:06:11.098Z,100.00
2022-12-27T20:08:38.967Z,100.00
2022-12-27T20:11:07.566Z,100.00
2022-12-27T20:13:41.737Z,100.00
2022-12-27T20:16:14.493Z,100.00
2022-12-27T20:18:42.733Z,100.00
2022-12-27T20:21:23.472Z,100.00
2022-12-27T20:23:52.778Z,100.00
2022-12-27T20:26:25.347Z,100.00
2022-12-27T20:28:59.976Z,100.00
2022-12-27T20:31:26.959Z,100.00
2022-12-27T20:33:55.287Z,100.00
2022-12-27T20:36:23.508Z,100.00
2022-12-27T20:38:50.252Z,100.00
2022-12-27T20:41:20.582Z,100.00
2022-12-27T20:43:47.270Z,100.00
2022-12-27T20:46:16.793Z,100.00
2022-12-27T20:48:46.324Z,100.00
2022-12-27T20:51:22.553Z,100.00
2022-12-27T20:53:57.596Z,100.00
2022-12-27T20:56:25.128Z,100.00
2022-12-27T20:58:52.761Z,100.00
2022-12-27T21:01:28.974Z,100.00
2022-12-27T21:03:58.079Z,100.00
2022-12-27T21:06:27.852Z,100.00
2022-12-27T21:08:57.813Z,100.00
2022-12-27T21:11:35.211Z,100.00
2022-12-27T21:14:04.389Z,100.00
2022-12-27T21:16:35.449Z,100.00
2022-12-27T21:19:06.124Z,100.00
2022-12-27T21:21:35.206Z,100.00
2022-12-27T21:24:02.442Z,100.00
2022-12-27T21:26:35.539Z,100.00
2022-12-27T21:29:04.234Z,100.00
2022-12-27T21:31:32.079Z,100.00
2022-12-27T21:34:02.076Z,100.00
2022-12-27T21:36:31.834Z,100.00
2022-12-27T21:39:00.473Z,100.00
2022-12-27T21:41:33.340Z,100.00
2022-12-27T21:44:00.323Z,100.00
2022-12-27T21:46:32.208Z,100.00
2022-12-27T21:49:10.788Z,100.00
2022-12-27T21:51:39.012Z,100.00
2022-12-27T21:54:07.038Z,100.00
2022-12-27T21:56:36.837Z,100.00
2022-12-27T21:59:13.603Z,100.00
2022-12-27T22:01:51.601Z,100.00
2022-12-27T22:04:20.400Z,100.00
2022-12-27T22:06:48.047Z,100.00
2022-12-27T22:09:15.589Z,100.00
2022-12-27T22:11:42.595Z,100.00
2022-12-27T22:14:09.539Z,100.00
2022-12-27T22:16:39.165Z,100.00
2022-12-27T22:19:13.835Z,100.00
2022-12-27T22:21:42.178Z,100.00
2022-12-27T22:24:13.274Z,100.00
2022-12-27T22:26:40.660Z,100.00
2022-12-27T22:29:12.064Z,100.00
2022-12-27T22:31:44.266Z,100.00
2022-12-27T22:34:10.850Z,100.00
2022-12-27T22:36:37.616Z,100.00
2022-12-27T22:39:05.749Z,100.00
2022-12-27T22:41:36.878Z,100.00
2022-12-27T22:44:10.371Z,100.00
2022-12-27T22:49:26.671Z,100.00
2022-12-27T22:51:53.361Z,100.00
2022-12-27T22:54:20.308Z,100.00
2022-12-27T22:57:06.889Z,100.00
2022-12-27T22:59:33.613Z,100.00
2022-12-27T23:02:00.312Z,100.00
2022-12-27T23:04:34.608Z,100.00
2022-12-27T23:07:02.299Z,100.00
2022-12-27T23:09:29.687Z,100.00
2022-12-27T23:11:56.278Z,100.00
2022-12-27T23:14:22.948Z,100.00
2022-12-27T23:16:52.411Z,100.00
2022-12-27T23:19:21.492Z,100.00
2022-12-27T23:21:48.774Z,100.00
2022-12-27T23:24:15.899Z,100.00
2022-12-27T23:26:42.904Z,100.00
2022-12-27T23:29:17.316Z,100.00
2022-12-27T23:31:54.606Z,100.00
2022-12-27T23:34:27.815Z,100.00
2022-12-27T23:36:59.389Z,100.00
2022-12-27T23:39:26.482Z,100.00
2022-12-27T23:41:53.354Z,100.00
2022-12-27T23:44:33.240Z,100.00
2022-12-27T23:47:02.485Z,100.00
2022-12-27T23:49:31.837Z,100.00
2022-12-27T23:51:58.641Z,100.00
2022-12-27T23:54:25.265Z,100.00
2022-12-27T23:56:52.007Z,100.00
2022-12-27T23:59:26.302Z,100.00
